Time;durP1;ratioP1;P1;durP2;ratioP2;P2;SDS_P1;SDS_P2;PMS_P1;PMS_P2;Temp;Humidity;BMP_temperature;BMP_pressure;BME280_temperature;BME280_humidity;BME280_pressure;Samples;Min_cycle;Max_cycle;Signal;HPM_P1;HPM_P2
2022/08/24 00:01:55;;;;;;;11.85;10.00;;;;;;;26.17;50.30;101777.75;4997130;28;20046;-73
2022/08/24 00:04:21;;;;;;;12.13;10.82;;;;;;;26.14;50.45;101778.16;4978110;28;21149;-73
2022/08/24 00:06:47;;;;;;;14.10;11.32;;;;;;;26.14;50.68;101774.69;4999842;28;20491;-73
2022/08/24 00:09:12;;;;;;;13.35;11.48;;;;;;;26.15;50.68;101773.66;4997139;28;20045;-73
2022/08/24 00:11:37;;;;;;;11.95;10.63;;;;;;;26.11;50.97;101775.06;4995324;28;20076;-73
2022/08/24 00:14:03;;;;;;;13.25;10.60;;;;;;;26.13;50.80;101775.69;4994799;28;20082;-73
2022/08/24 00:16:28;;;;;;;11.40;10.18;;;;;;;26.09;50.91;101769.94;4999028;28;20057;-73
2022/08/24 00:18:54;;;;;;;12.88;11.48;;;;;;;26.14;50.84;101772.84;4997631;28;20041;-73
2022/08/24 00:21:20;;;;;;;14.43;11.25;;;;;;;26.12;50.51;101772.22;4994812;28;20103;-73
2022/08/24 00:23:47;;;;;;;15.60;10.98;;;;;;;26.12;51.04;101768.72;4999086;28;20033;-74
2022/08/24 00:26:14;;;;;;;16.08;11.13;;;;;;;26.10;50.67;101768.91;4981826;28;20153;-73
2022/08/24 00:28:40;;;;;;;12.93;10.95;;;;;;;26.14;50.88;101777.34;4998671;28;20055;-73
2022/08/24 00:31:05;;;;;;;13.63;10.80;;;;;;;26.13;50.86;101773.03;4994390;28;20049;-73
2022/08/24 00:33:32;;;;;;;15.52;10.88;;;;;;;26.15;50.59;101779.00;4969970;28;20049;-73
2022/08/24 00:35:57;;;;;;;15.95;10.80;;;;;;;26.09;51.02;101777.13;4978958;28;20133;-73
2022/08/24 00:38:23;;;;;;;13.77;10.48;;;;;;;26.13;50.48;101770.38;4982720;28;20041;-73
2022/08/24 00:40:49;;;;;;;13.10;11.32;;;;;;;26.14;50.52;101769.34;4995480;28;20042;-74
2022/08/24 00:43:20;;;;;;;13.45;10.95;;;;;;;26.11;50.59;101775.06;4981339;28;20043;-75
2022/08/24 00:46:08;;;;;;;13.60;11.10;;;;;;;26.12;50.61;101774.06;4993531;28;20036;-75
2022/08/24 00:48:40;;;;;;;12.88;11.10;;;;;;;26.07;50.98;101772.00;4974265;28;20046;-75
2022/08/24 00:51:28;;;;;;;12.40;11.10;;;;;;;26.06;51.01;101767.69;4976446;28;20852;-75
2022/08/24 00:54:03;;;;;;;19.15;11.18;;;;;;;26.07;51.04;101769.31;4998342;28;20038;-75
2022/08/24 00:56:38;;;;;;;15.13;11.48;;;;;;;26.09;51.04;101769.94;4977651;28;20034;-75
2022/08/24 00:59:10;;;;;;;11.43;10.20;;;;;;;26.07;50.97;101768.50;5000449;28;20056;-74
2022/08/24 01:01:36;;;;;;;14.02;10.75;;;;;;;26.06;50.93;101762.34;5000158;28;20030;-74
2022/08/24 01:04:04;;;;;;;13.75;10.45;;;;;;;26.12;50.95;101763.38;4998183;28;20048;-75
2022/08/24 01:06:32;;;;;;;13.13;11.18;;;;;;;26.07;50.69;101763.16;4983432;28;20033;-75
2022/08/24 01:08:58;;;;;;;15.30;11.05;;;;;;;26.10;50.66;101765.44;4998367;28;20507;-75
2022/08/24 01:11:27;;;;;;;13.68;11.27;;;;;;;26.13;50.48;101757.84;4975158;28;20030;-75
2022/08/24 01:13:53;;;;;;;13.40;10.80;;;;;;;26.08;50.92;101762.97;4999495;28;20041;-75
2022/08/24 01:19:23;;;;;;;12.20;10.85;;;;;;;26.07;50.53;101763.97;4985197;28;20108;-75
2022/08/24 01:22:15;;;;;;;13.10;11.00;;;;;;;26.05;50.62;101766.03;4997002;28;20034;-75
2022/08/24 01:24:42;;;;;;;12.77;11.25;;;;;;;26.10;50.44;101760.91;4947446;28;20089;-75
2022/08/24 01:27:10;;;;;;;13.55;10.75;;;;;;;26.03;50.89;101760.06;4998051;28;20553;-75
2022/08/24 01:29:40;;;;;;;13.80;11.10;;;;;;;26.08;50.63;101762.97;4981044;28;20149;-75
2022/08/24 01:32:06;;;;;;;12.68;10.25;;;;;;;26.02;51.04;101757.56;4997579;28;20037;-75
2022/08/24 01:34:31;;;;;;;15.40;11.52;;;;;;;26.09;51.18;101775.28;4994810;28;20038;-75
2022/08/24 01:36:59;;;;;;;12.23;10.93;;;;;;;26.08;50.67;101770.97;4982911;28;20622;-75
2022/08/24 01:39:29;;;;;;;12.10;10.77;;;;;;;26.03;50.81;101775.22;4999330;28;20069;-75
2022/08/24 01:41:55;;;;;;;12.88;11.48;;;;;;;26.09;50.54;101771.78;4999412;28;20395;-75
2022/08/24 01:44:23;;;;;;;12.63;10.70;;;;;;;26.03;51.07;101777.91;4980870;28;20141;-73
2022/08/24 01:46:52;;;;;;;16.02;11.73;;;;;;;26.04;51.03;101780.41;4978179;28;20041;-73
2022/08/24 01:49:20;;;;;;;13.95;11.02;;;;;;;26.04;50.47;101782.25;4982408;28;20034;-73
2022/08/24 01:51:45;;;;;;;12.45;10.82;;;;;;;26.07;50.81;101788.00;4981264;28;20030;-72
2022/08/24 01:54:12;;;;;;;12.18;10.27;;;;;;;26.07;50.57;101792.53;4985315;28;20040;-73
2022/08/24 01:56:38;;;;;;;12.82;10.48;;;;;;;26.09;50.93;101796.63;4997063;28;20026;-73
2022/08/24 01:59:06;;;;;;;12.40;10.73;;;;;;;26.05;50.52;101790.06;4983806;28;20076;-73
2022/08/24 02:01:37;;;;;;;12.35;10.63;;;;;;;26.04;50.95;101788.41;4978039;28;20100;-73
2022/08/24 02:04:05;;;;;;;12.25;10.05;;;;;;;26.05;50.91;101787.38;5001367;28;20044;-73
2022/08/24 02:06:32;;;;;;;14.82;10.93;;;;;;;26.01;50.61;101783.44;4978670;28;20038;-73
2022/08/24 02:08:58;;;;;;;13.25;11.23;;;;;;;26.05;50.53;101789.22;4984065;28;20037;-73
2022/08/24 02:11:23;;;;;;;13.15;10.32;;;;;;;26.04;50.97;101787.59;4962004;28;20476;-73
2022/08/24 02:13:49;;;;;;;12.75;10.90;;;;;;;26.00;50.55;101781.78;5001987;28;20049;-73
2022/08/24 02:16:15;;;;;;;16.35;10.80;;;;;;;26.00;51.02;101787.13;4975115;28;20056;-73
2022/08/24 02:18:41;;;;;;;13.05;10.27;;;;;;;26.00;51.00;101778.31;4984764;28;20434;-73
2022/08/24 02:21:09;;;;;;;12.20;10.70;;;;;;;26.02;51.06;101781.59;4974832;28;20030;-73
2022/08/24 02:23:37;;;;;;;13.13;10.70;;;;;;;25.98;51.16;101781.16;5001954;28;20105;-73
2022/08/24 02:26:04;;;;;;;12.52;11.20;;;;;;;26.00;50.67;101778.31;4973243;28;20103;-73
2022/08/24 02:28:31;;;;;;;13.43;10.93;;;;;;;26.01;50.77;101772.75;4995980;28;20040;-73
2022/08/24 02:30:57;;;;;;;12.40;10.68;;;;;;;25.98;51.17;101777.69;4979509;28;20064;-73
2022/08/24 02:33:23;;;;;;;12.00;10.02;;;;;;;25.99;50.79;101782.00;4978682;28;20479;-73
2022/08/24 02:35:50;;;;;;;12.40;11.07;;;;;;;25.98;50.80;101775.00;4982589;28;20038;-73
2022/08/24 02:38:17;;;;;;;14.93;10.88;;;;;;;25.98;51.01;101777.69;4981141;28;20052;-73
2022/08/24 02:40:42;;;;;;;11.93;10.27;;;;;;;26.01;50.57;101783.44;4981218;28;20041;-73
2022/08/24 02:43:08;;;;;;;12.65;10.15;;;;;;;26.00;50.66;101783.63;4975466;28;20041;-73
2022/08/24 02:45:42;;;;;;;12.18;10.43;;;;;;;26.02;50.59;101781.59;4998190;28;20065;-72
2022/08/24 02:48:09;;;;;;;12.57;10.30;;;;;;;25.94;51.11;101793.28;4979104;28;20112;-73
2022/08/24 02:50:45;;;;;;;11.30;10.18;;;;;;;25.99;50.94;101793.50;4980807;28;20030;-73
2022/08/24 02:53:13;;;;;;;12.35;10.10;;;;;;;25.98;50.97;101793.69;4980369;28;20030;-73
2022/08/24 02:55:40;;;;;;;13.52;11.15;;;;;;;26.00;50.88;101792.47;4978274;28;20030;-73
2022/08/24 02:58:08;;;;;;;12.75;10.90;;;;;;;25.96;50.67;101796.56;4982489;28;20040;-74
2022/08/24 03:00:35;;;;;;;11.43;9.65;;;;;;;25.93;51.13;101793.47;4977081;28;20124;-75
2022/08/24 03:03:01;;;;;;;11.35;9.73;;;;;;;25.88;50.86;101781.56;5002970;28;20509;-75
2022/08/24 03:05:27;;;;;;;10.77;9.68;;;;;;;25.97;50.93;101792.03;4982456;28;20061;-75
2022/08/24 03:07:54;;;;;;;13.25;9.73;;;;;;;25.98;51.02;101791.03;4975236;28;20038;-75
2022/08/24 03:10:20;;;;;;;13.43;9.93;;;;;;;25.97;50.50;101789.38;4995037;28;20116;-75
2022/08/24 03:12:46;;;;;;;11.13;9.98;;;;;;;25.96;50.73;101793.06;4996733;28;20038;-75
2022/08/24 03:15:13;;;;;;;11.70;9.82;;;;;;;25.93;50.90;101793.47;4974136;28;20499;-75
2022/08/24 03:17:40;;;;;;;12.27;10.00;;;;;;;25.93;50.74;101796.13;4973772;28;20061;-75
2022/08/24 03:20:09;;;;;;;12.35;10.57;;;;;;;25.92;51.00;101803.31;4977160;28;20057;-75
2022/08/24 03:22:35;;;;;;;10.98;9.88;;;;;;;25.87;51.06;101790.56;4999059;28;20075;-74
2022/08/24 03:25:01;;;;;;;11.27;9.35;;;;;;;25.87;50.82;101797.75;4997683;28;20491;-75
2022/08/24 03:27:26;;;;;;;11.65;9.75;;;;;;;25.95;50.96;101791.41;4974451;28;20034;-74
2022/08/24 03:29:52;;;;;;;14.40;11.23;;;;;;;25.94;50.98;101792.44;4972924;28;20038;-75
2022/08/24 03:32:18;;;;;;;14.38;10.50;;;;;;;25.91;51.20;101793.66;4979216;28;20041;-74
2022/08/24 03:34:44;;;;;;;11.63;10.43;;;;;;;25.94;50.53;101795.94;4977252;28;20727;-74
2022/08/24 03:37:10;;;;;;;11.25;10.05;;;;;;;25.92;50.85;101802.50;4975112;28;20046;-75
2022/08/24 03:39:35;;;;;;;12.77;10.65;;;;;;;25.90;50.55;101798.19;4992732;28;20034;-74
2022/08/24 03:42:01;;;;;;;14.43;9.68;;;;;;;25.93;50.84;101794.28;4991784;28;20039;-75
2022/08/24 03:44:27;;;;;;;12.45;9.43;;;;;;;25.92;50.59;101794.50;4981430;28;20041;-73
2022/08/24 03:46:53;;;;;;;13.05;10.73;;;;;;;25.90;50.58;101795.50;4976189;28;20042;-74
2022/08/24 03:49:20;;;;;;;12.60;9.88;;;;;;;25.88;50.93;101796.75;4979840;28;20049;-73
2022/08/24 03:51:48;;;;;;;13.18;10.45;;;;;;;25.90;50.55;101800.84;4978384;28;20033;-73
2022/08/24 03:54:13;;;;;;;14.50;10.43;;;;;;;25.92;50.59;101797.16;4980793;28;20563;-73
2022/08/24 03:56:40;;;;;;;11.05;9.65;;;;;;;25.90;50.63;101800.84;4997117;28;20058;-73
2022/08/24 03:59:08;;;;;;;13.80;11.13;;;;;;;25.87;50.68;101795.91;4997320;28;20172;-73
2022/08/24 04:01:38;;;;;;;11.38;10.23;;;;;;;25.89;50.55;101804.53;4993940;28;20033;-73
2022/08/24 04:04:04;;;;;;;11.75;10.20;;;;;;;25.92;50.94;101811.31;4979655;28;20061;-73
2022/08/24 04:06:33;;;;;;;10.73;9.32;;;;;;;25.87;50.89;101803.91;4980977;28;20034;-73
2022/08/24 04:08:59;;;;;;;13.13;9.65;;;;;;;25.94;50.45;101811.13;4982405;28;20042;-73
2022/08/24 04:11:27;;;;;;;12.32;10.10;;;;;;;25.90;50.43;101810.69;4975335;28;20484;-73
2022/08/24 04:13:58;;;;;;;11.48;9.65;;;;;;;25.88;50.41;101805.56;4993631;28;20045;-73
2022/08/24 04:16:25;;;;;;;12.00;10.45;;;;;;;25.81;50.58;101802.00;4981484;28;20100;-72
2022/08/24 04:19:03;;;;;;;;;;;;;;;25.84;50.87;101806.94;4972525;28;20030;-73
2022/08/24 04:21:33;;;;;;;13.13;10.23;;;;;;;25.81;50.87;101799.34;4977448;28;20398;-73
2022/08/24 04:24:00;;;;;;;10.82;9.60;;;;;;;25.83;50.53;101807.16;4992473;28;20030;-73
2022/08/24 04:26:28;;;;;;;10.52;9.43;;;;;;;25.83;50.89;101807.97;4977190;28;20041;-73
2022/08/24 04:28:55;;;;;;;10.90;9.80;;;;;;;25.87;50.46;101811.91;4994323;28;20116;-73
2022/08/24 04:31:21;;;;;;;11.98;10.52;;;;;;;25.86;50.84;101807.59;4993196;28;20053;-73
2022/08/24 04:33:50;;;;;;;12.70;10.32;;;;;;;25.82;51.00;101803.66;4987630;28;20030;-74
2022/08/24 04:36:19;;;;;;;13.85;9.88;;;;;;;25.79;51.06;101804.06;4996419;28;21041;-73
2022/08/24 04:38:46;;;;;;;12.30;9.57;;;;;;;25.86;50.69;101812.13;4981516;28;20041;-73
2022/08/24 04:41:34;;;;;;;11.60;9.90;;;;;;;25.86;50.77;101823.63;4990632;28;20481;-74
2022/08/24 04:44:00;;;;;;;12.52;9.95;;;;;;;25.86;50.76;101820.94;4978487;28;20045;-73
2022/08/24 04:46:27;;;;;;;11.05;9.90;;;;;;;25.84;50.82;101828.31;4979364;28;20092;-73
2022/08/24 04:48:54;;;;;;;10.95;9.65;;;;;;;25.85;50.76;101829.97;4959375;28;20034;-73
2022/08/24 04:51:20;;;;;;;10.45;9.35;;;;;;;25.85;50.48;101827.31;4980152;28;20045;-73
2022/08/24 04:53:47;;;;;;;12.65;9.75;;;;;;;25.80;50.63;101818.22;4986777;28;20037;-73
2022/08/24 04:56:23;;;;;;;10.30;9.25;;;;;;;25.90;50.69;101829.38;4980332;28;20099;-73
2022/08/24 04:58:52;;;;;;;11.90;10.35;;;;;;;25.82;50.63;101834.84;4980727;28;20387;-73
2022/08/24 05:01:20;;;;;;;10.88;9.75;;;;;;;25.83;50.61;101834.66;4977809;28;20128;-74
2022/08/24 05:03:49;;;;;;;12.90;9.50;;;;;;;25.84;50.62;101838.16;4978501;28;20392;-73
2022/08/24 05:06:17;;;;;;;10.98;9.45;;;;;;;25.88;50.74;101839.44;4983058;28;20038;-73
2022/08/24 05:08:43;;;;;;;11.52;9.60;;;;;;;25.88;50.42;101834.91;4993454;28;20048;-73
2022/08/24 05:11:10;;;;;;;10.32;9.18;;;;;;;25.84;50.80;101835.47;4993734;28;20030;-73
2022/08/24 05:13:36;;;;;;;10.18;9.07;;;;;;;25.80;50.88;101837.72;4975198;28;20518;-73
2022/08/24 05:16:06;;;;;;;11.40;9.25;;;;;;;25.80;50.57;101832.38;4986560;28;20109;-73
2022/08/24 05:18:32;;;;;;;10.85;9.38;;;;;;;25.83;50.38;101834.66;4986747;28;20038;-74
2022/08/24 05:20:58;;;;;;;10.40;9.40;;;;;;;25.82;50.78;101838.34;4980953;28;20617;-74
2022/08/24 05:23:25;;;;;;;11.93;10.25;;;;;;;25.81;50.57;101834.03;4977855;28;20037;-74
2022/08/24 05:26:14;;;;;;;10.65;9.45;;;;;;;25.80;50.72;101828.88;4993364;28;20064;-74
2022/08/24 05:28:40;;;;;;;11.15;9.43;;;;;;;25.86;50.32;101830.81;4976044;28;20036;-74
2022/08/24 05:31:12;;;;;;;11.45;8.95;;;;;;;25.84;50.60;101840.81;4973359;28;20053;-74
2022/08/24 05:33:38;;;;;;;13.95;9.02;;;;;;;25.87;50.73;101841.28;4980455;28;20061;-75
2022/08/24 05:36:05;;;;;;;11.88;9.82;;;;;;;25.84;50.85;101843.47;4965304;28;20128;-74
2022/08/24 05:38:32;;;;;;;10.57;9.40;;;;;;;25.85;50.46;101847.81;4997400;28;20037;-73
2022/08/24 05:41:02;;;;;;;12.63;9.70;;;;;;;25.87;50.38;101851.13;4997764;28;20793;-73
2022/08/24 05:43:29;;;;;;;11.80;9.52;;;;;;;25.86;50.59;101850.31;4976678;28;20065;-74
2022/08/24 05:45:54;;;;;;;10.95;9.10;;;;;;;25.88;50.36;101847.44;4974826;28;20049;-73
2022/08/24 05:48:20;;;;;;;10.43;8.45;;;;;;;25.86;50.71;101849.47;4986008;28;20129;-74
2022/08/24 05:51:13;;;;;;;9.27;8.38;;;;;;;25.84;50.80;101854.97;4984051;28;20034;-74
2022/08/24 05:53:50;;;;;;;12.02;9.55;;;;;;;25.81;50.43;101851.88;4983768;28;20128;-73
2022/08/24 05:56:18;;;;;;;12.02;9.48;;;;;;;25.86;50.67;101860.97;4980680;28;20137;-74
2022/08/24 05:58:44;;;;;;;12.27;9.52;;;;;;;25.89;50.45;101855.25;5000518;28;20044;-73
2022/08/24 06:01:20;;;;;;;12.20;10.02;;;;;;;25.82;50.49;101853.53;4979499;28;20136;-74
2022/08/24 06:03:47;;;;;;;10.60;9.05;;;;;;;25.84;50.61;101867.50;4979874;28;20044;-74
2022/08/24 06:06:14;;;;;;;11.45;9.65;;;;;;;25.82;50.40;101869.53;4997256;28;20129;-73
2022/08/24 06:08:44;;;;;;;10.73;9.27;;;;;;;25.90;50.33;101872.06;4982959;28;20034;-74
2022/08/24 06:11:18;;;;;;;11.25;9.40;;;;;;;25.86;50.47;101870.81;4986372;28;20025;-74
2022/08/24 06:13:43;;;;;;;11.45;9.15;;;;;;;25.87;50.70;101878.63;5002807;28;20041;-73
2022/08/24 06:16:12;;;;;;;10.93;9.48;;;;;;;25.80;50.79;101868.91;4988333;28;20100;-73
2022/08/24 06:18:40;;;;;;;13.52;9.85;;;;;;;25.85;50.37;101885.16;4995578;28;20033;-74
2022/08/24 06:21:11;;;;;;;11.45;9.60;;;;;;;25.88;50.49;101880.28;4984756;28;20053;-74
2022/08/24 06:23:38;;;;;;;11.77;9.25;;;;;;;25.83;50.92;101882.69;4995665;28;20954;-74
2022/08/24 06:28:51;;;;;;;12.20;9.70;;;;;;;25.92;50.77;101886.03;4995754;28;20045;-74
2022/08/24 06:31:18;;;;;;;11.02;9.20;;;;;;;25.96;50.47;101892.63;4979932;28;20056;-74
2022/08/24 06:33:44;;;;;;;10.77;9.45;;;;;;;25.93;50.84;101893.03;4977044;28;20639;-74
2022/08/24 06:36:10;;;;;;;11.63;9.65;;;;;;;25.94;50.53;101888.53;4979610;28;20042;-74
2022/08/24 06:38:35;;;;;;;11.82;9.23;;;;;;;25.98;50.61;101890.59;4978548;28;20034;-73
2022/08/24 06:41:03;;;;;;;12.25;9.98;;;;;;;25.96;50.94;101891.81;4981228;28;20065;-72
2022/08/24 06:43:29;;;;;;;13.70;10.70;;;;;;;25.96;51.15;101897.16;4993381;28;20046;-74
2022/08/24 06:45:59;;;;;;;21.77;13.93;;;;;;;25.95;51.55;101891.00;4981875;28;20041;-74
2022/08/24 06:48:33;;;;;;;28.95;17.20;;;;;;;25.97;51.90;101886.28;4983158;28;20037;-74
2022/08/24 06:50:59;;;;;;;24.58;14.18;;;;;;;26.00;52.03;101895.72;4999803;28;20033;-73
2022/08/24 06:53:26;;;;;;;19.98;12.88;;;;;;;25.99;51.83;101889.56;4972928;28;20038;-74
2022/08/24 06:55:56;;;;;;;22.02;14.68;;;;;;;26.03;52.00;101892.66;4981834;28;21086;-73
2022/08/24 06:58:23;;;;;;;23.77;15.70;;;;;;;26.03;51.93;101893.53;4983471;28;20041;-74
2022/08/24 07:00:48;;;;;;;24.48;15.93;;;;;;;26.08;52.31;101891.09;4982492;28;20041;-73
2022/08/24 07:03:16;;;;;;;18.73;13.40;;;;;;;26.03;52.08;101882.84;4960069;28;20030;-73
2022/08/24 07:05:52;;;;;;;16.75;12.40;;;;;;;26.10;51.94;101885.53;5004533;28;20040;-73
2022/08/24 07:08:33;;;;;;;15.70;11.95;;;;;;;26.11;51.45;101887.19;4995371;28;20096;-73
2022/08/24 07:10:58;;;;;;;21.80;13.68;;;;;;;26.11;51.37;101889.88;4986256;28;20092;-74
2022/08/24 07:13:24;;;;;;;20.38;14.70;;;;;;;26.04;51.63;101889.00;4983592;28;20141;-72
2022/08/24 07:15:51;;;;;;;18.30;12.68;;;;;;;26.10;51.93;101899.72;4983581;28;20057;-73
2022/08/24 07:18:19;;;;;;;19.00;12.68;;;;;;;26.09;51.85;101898.06;4974570;28;20050;-73
2022/08/24 07:20:49;;;;;;;16.70;11.88;;;;;;;26.02;51.46;101894.50;4975219;28;20041;-73
2022/08/24 07:23:18;;;;;;;17.38;11.55;;;;;;;26.14;51.34;101916.16;4976412;28;20038;-73
2022/08/24 07:25:45;;;;;;;19.35;12.88;;;;;;;26.10;51.96;101914.91;4979565;28;20037;-74
2022/08/24 07:28:12;;;;;;;21.17;13.15;;;;;;;26.14;51.78;101916.97;4982286;28;20126;-73
2022/08/24 07:30:40;;;;;;;14.00;11.68;;;;;;;26.13;51.55;101917.19;4989377;28;20045;-73
2022/08/24 07:33:07;;;;;;;17.92;11.43;;;;;;;26.13;51.46;101909.19;4980886;28;20133;-73
2022/08/24 07:35:33;;;;;;;14.73;10.80;;;;;;;26.12;51.37;101913.69;4976641;28;20045;-73
2022/08/24 07:37:59;;;;;;;17.33;12.32;;;;;;;26.18;51.60;101912.06;4981530;28;20508;-73
2022/08/24 07:40:27;;;;;;;17.55;12.35;;;;;;;26.14;52.14;101921.50;4983275;28;20053;-73
2022/08/24 07:42:55;;;;;;;21.70;13.30;;;;;;;26.18;52.05;101917.41;4981663;28;20393;-73
2022/08/24 07:45:21;;;;;;;13.40;10.70;;;;;;;26.16;51.87;101916.78;4981827;28;20030;-73
2022/08/24 07:47:50;;;;;;;21.08;11.93;;;;;;;26.23;51.91;101920.34;4974768;28;20038;-72
2022/08/24 07:50:41;;;;;;;23.08;14.63;;;;;;;26.36;52.10;101925.78;4959376;28;20050;-75
2022/08/24 07:53:07;;;;;;;22.98;14.63;;;;;;;26.53;51.58;101920.94;4983531;28;20053;-74
2022/08/24 07:55:33;;;;;;;18.33;11.98;;;;;;;26.71;50.53;101925.72;5005616;28;20037;-77
2022/08/24 07:58:00;;;;;;;19.00;11.77;;;;;;;26.91;50.33;101934.66;4979653;28;20038;-75
2022/08/24 08:00:26;;;;;;;14.55;11.10;;;;;;;27.03;49.81;101930.41;4987889;28;20030;-71
2022/08/24 08:02:58;;;;;;;20.95;11.52;;;;;;;26.97;49.76;101933.88;4984120;28;20138;-74
2022/08/24 08:05:24;;;;;;;15.32;10.50;;;;;;;26.96;49.81;101928.72;4965097;28;20404;-74
2022/08/24 08:07:52;;;;;;;22.80;12.95;;;;;;;27.04;50.06;101933.91;4995827;28;20030;-74
2022/08/24 08:10:17;;;;;;;54.03;27.48;;;;;;;26.95;50.13;101932.44;4986990;28;20045;-73
2022/08/24 08:12:44;;;;;;;25.35;16.88;;;;;;;27.17;49.24;101943.81;4985278;28;20030;-73
2022/08/24 08:15:10;;;;;;;22.58;13.48;;;;;;;27.29;49.36;101950.22;5004297;28;20870;-73
2022/08/24 08:17:42;;;;;;;20.38;12.20;;;;;;;27.40;48.81;101947.78;4985715;28;20488;-72
2022/08/24 08:20:08;;;;;;;24.92;12.07;;;;;;;27.50;48.56;101946.56;4983879;28;20049;-73
2022/08/24 08:25:38;;;;;;;18.98;11.27;;;;;;;27.49;48.39;101944.91;4994817;28;20048;-76
2022/08/24 08:28:08;;;;;;;15.75;10.95;;;;;;;27.58;48.35;101954.38;4970321;28;20042;-74
2022/08/24 08:30:34;;;;;;;16.92;10.20;;;;;;;27.56;47.96;101951.91;5004746;28;20070;-77
2022/08/24 08:33:00;;;;;;;19.73;10.95;;;;;;;27.53;47.86;101952.31;4983861;28;20060;-76
2022/08/24 08:35:25;;;;;;;15.48;9.98;;;;;;;27.59;48.11;101956.84;5002913;28;20510;-78
2022/08/24 08:37:51;;;;;;;17.33;9.70;;;;;;;27.58;48.19;101949.03;4991009;28;20038;-79
2022/08/24 08:40:43;;;;;;;19.88;11.68;;;;;;;27.52;48.59;101958.69;4976394;28;20045;-75
2022/08/24 08:43:43;;;;;;;17.10;10.48;;;;;;;27.63;48.14;101954.59;4965193;28;20037;-74
2022/08/24 08:46:41;;;;;;;12.73;9.90;;;;;;;27.62;48.24;101953.75;4981037;28;20030;-74
2022/08/24 08:49:41;;;;;;;16.10;10.55;;;;;;;27.65;47.99;101956.09;4997849;28;20046;-74
2022/08/24 08:52:13;;;;;;;12.77;9.23;;;;;;;27.68;48.26;101952.16;4995212;28;20069;-74
2022/08/24 08:54:48;;;;;;;14.55;10.55;;;;;;;27.53;48.59;101955.00;4974732;28;20053;-77
2022/08/24 08:57:34;;;;;;;16.70;10.35;;;;;;;27.51;48.65;101958.91;4982843;28;20081;-75
2022/08/24 09:00:14;;;;;;;13.77;8.60;;;;;;;27.66;48.26;101955.06;4986161;28;20032;-79
2022/08/24 09:03:03;;;;;;;15.93;9.27;;;;;;;27.68;48.45;101952.16;4987271;28;20040;-78
2022/08/24 09:05:56;;;;;;;21.70;10.18;;;;;;;27.71;48.61;101956.28;4999940;28;20408;-75
2022/08/24 09:08:48;;;;;;;15.73;9.70;;;;;;;27.71;48.45;101961.63;5001374;28;20472;-77
2022/08/24 09:11:14;;;;;;;14.63;9.75;;;;;;;27.74;48.62;101961.22;4960873;28;20026;-77
2022/08/24 09:14:07;;;;;;;16.63;10.82;;;;;;;27.66;48.71;101957.72;4987751;28;20052;-75
2022/08/24 09:16:56;;;;;;;11.25;8.55;;;;;;;27.66;48.75;101955.06;4989810;28;20054;-75
2022/08/24 09:19:34;;;;;;;13.93;9.18;;;;;;;27.60;48.75;101955.81;4989230;28;20435;-74
2022/08/24 09:22:06;;;;;;;14.80;9.10;;;;;;;27.56;48.94;101961.78;4981607;28;20036;-73
2022/08/24 09:24:51;;;;;;;11.63;8.43;;;;;;;27.59;48.51;101958.69;4988993;28;20034;-77
2022/08/24 09:27:45;;;;;;;12.73;8.07;;;;;;;27.58;48.92;101949.03;4978768;28;20416;-74
2022/08/24 09:30:12;;;;;;;15.85;8.13;;;;;;;27.53;49.05;101949.66;4978594;28;20034;-73
2022/08/24 09:32:49;;;;;;;10.38;7.60;;;;;;;27.53;48.97;101948.81;5002856;28;20817;-74
2022/08/24 09:35:30;;;;;;;11.40;7.45;;;;;;;27.53;49.18;101948.81;5004830;28;20050;-74
2022/08/24 09:38:14;;;;;;;12.32;8.35;;;;;;;27.52;48.87;101948.00;5000821;28;20042;-73
2022/08/24 09:41:10;;;;;;;13.20;7.35;;;;;;;27.53;49.19;101948.81;5003581;28;20029;-74
2022/08/24 09:43:54;;;;;;;8.75;7.25;;;;;;;27.53;48.80;101952.31;4994365;28;20041;-74
2022/08/24 09:46:41;;;;;;;10.82;7.70;;;;;;;27.55;48.58;101952.13;4986490;28;21633;-74
2022/08/24 09:49:37;;;;;;;14.30;7.60;;;;;;;27.56;48.79;101953.75;5004293;28;20038;-75
2022/08/24 09:53:02;;;;;;;11.10;7.13;;;;;;;27.56;48.64;101953.75;5006842;28;20029;-74
2022/08/24 09:55:34;;;;;;;8.88;6.40;;;;;;;27.57;48.77;101958.09;4947776;28;20043;-74
2022/08/24 09:58:30;;;;;;;11.35;7.70;;;;;;;27.56;48.62;101957.25;5000671;28;20217;-74
2022/08/24 10:01:15;;;;;;;8.07;6.32;;;;;;;27.56;48.63;101959.13;4987520;28;20046;-74
2022/08/24 10:03:48;;;;;;;11.05;7.45;;;;;;;27.59;48.76;101958.69;5001203;28;20120;-74
2022/08/24 10:06:28;;;;;;;13.07;8.20;;;;;;;27.59;48.53;101962.19;5002383;28;20064;-74
2022/08/24 10:09:25;;;;;;;14.95;8.20;;;;;;;27.59;48.81;101959.53;4995202;28;20488;-74
2022/08/24 10:11:57;;;;;;;11.07;7.50;;;;;;;27.59;48.52;101956.03;4996065;28;20232;-74
2022/08/24 10:15:00;;;;;;;13.48;7.68;;;;;;;27.59;48.44;101954.16;4999817;28;20045;-75
2022/08/24 10:17:53;;;;;;;18.83;7.88;;;;;;;27.60;48.51;101946.97;4975727;28;20047;-74
2022/08/24 10:20:24;;;;;;;11.25;6.88;;;;;;;27.61;48.68;101941.41;4994554;28;20491;-75
2022/08/24 10:22:57;;;;;;;13.13;7.47;;;;;;;27.62;48.59;101945.72;4999327;28;20042;-74
2022/08/24 10:25:37;;;;;;;11.70;7.20;;;;;;;27.59;48.76;101937.28;5001409;28;20402;-74
2022/08/24 10:28:40;;;;;;;14.38;7.25;;;;;;;27.62;48.65;101943.06;4997522;28;20504;-74
2022/08/24 10:31:09;;;;;;;16.08;7.65;;;;;;;27.62;48.64;101934.19;4998397;28;20797;-74
2022/08/24 10:33:56;;;;;;;16.02;7.75;;;;;;;27.62;48.60;101939.56;4972505;28;20414;-74
2022/08/24 10:36:39;;;;;;;15.25;7.80;;;;;;;27.63;48.70;101942.06;4999825;28;20049;-73
2022/08/24 10:45:24;;;;;;;13.73;7.60;;;;;;;27.64;48.95;101946.38;5001040;28;20510;-73
2022/08/24 10:48:18;;;;;;;11.13;7.35;;;;;;;27.65;48.88;101939.19;4989583;28;21759;-73
2022/08/24 10:51:22;;;;;;;12.10;7.70;;;;;;;27.66;48.77;101930.16;4999096;28;20034;-73
2022/08/24 10:53:51;;;;;;;17.05;7.75;;;;;;;27.66;48.70;101932.81;4919738;28;20050;-73
2022/08/24 10:56:19;;;;;;;12.93;7.20;;;;;;;27.65;49.05;101929.31;5000390;28;20131;-73
2022/08/24 10:58:55;;;;;;;10.63;6.83;;;;;;;27.66;48.81;101933.63;4994470;28;20133;-73
2022/08/24 11:01:32;;;;;;;13.35;7.70;;;;;;;27.68;48.83;101931.59;4997620;28;20477;-73
2022/08/24 11:04:04;;;;;;;11.93;7.35;;;;;;;27.69;49.10;101927.06;4993839;28;20034;-73
2022/08/24 11:06:53;;;;;;;14.80;7.22;;;;;;;27.73;48.57;101930.13;4991241;28;20448;-72
2022/08/24 11:09:19;;;;;;;10.52;7.32;;;;;;;27.69;48.53;101922.53;4993594;28;20100;-72
2022/08/24 11:11:47;;;;;;;13.25;6.90;;;;;;;27.75;48.57;101925.41;4995976;28;20447;-72
2022/08/24 11:14:25;;;;;;;14.60;6.88;;;;;;;27.75;48.44;101922.72;4996127;28;20034;-72
2022/08/24 11:16:51;;;;;;;12.10;7.10;;;;;;;27.77;48.63;101928.69;4997964;28;20095;-72
2022/08/24 11:19:25;;;;;;;16.23;7.05;;;;;;;27.77;48.54;101921.47;4981743;28;20681;-72
2022/08/24 11:21:56;;;;;;;10.55;7.20;;;;;;;27.81;48.41;101922.69;4985392;28;20124;-72
2022/08/24 11:24:25;;;;;;;11.13;7.05;;;;;;;27.81;48.67;101916.53;4993679;28;20096;-71
2022/08/24 11:26:55;;;;;;;11.27;6.97;;;;;;;27.82;48.60;101919.00;4993699;28;20030;-71
2022/08/24 11:29:42;;;;;;;16.52;7.43;;;;;;;27.81;48.34;101916.53;4998264;28;20038;-71
2022/08/24 11:32:08;;;;;;;9.88;6.53;;;;;;;27.81;48.12;101917.34;4985545;28;20065;-71
2022/08/24 11:34:37;;;;;;;8.88;6.43;;;;;;;27.84;48.25;101919.63;4994286;28;20081;-71
2022/08/24 11:37:04;;;;;;;11.98;6.75;;;;;;;27.85;48.03;101923.97;4974365;28;20045;-71
2022/08/24 11:39:34;;;;;;;15.35;7.15;;;;;;;27.85;47.87;101907.91;4994932;28;20050;-71
2022/08/24 11:42:27;;;;;;;11.82;7.22;;;;;;;27.90;48.07;101918.81;4991139;28;20096;-71
2022/08/24 11:45:16;;;;;;;10.73;6.35;;;;;;;27.89;48.04;101921.69;4996136;28;20049;-71
2022/08/24 11:47:50;;;;;;;11.13;6.65;;;;;;;27.91;47.97;101922.28;4995817;28;20844;-71
2022/08/24 11:50:19;;;;;;;10.95;6.68;;;;;;;27.92;47.91;101919.41;4996776;28;20057;-71